createdAt,value
2023-04-09T00:01:21.083Z,4.50
2023-04-09T00:03:49.127Z,3.80
2023-04-09T00:06:18.447Z,5.50
2023-04-09T00:08:46.314Z,3.60
2023-04-09T00:11:14.238Z,4.80
2023-04-09T00:13:42.153Z,3.40
2023-04-09T00:16:10.233Z,5.30
2023-04-09T00:18:38.219Z,5.20
2023-04-09T00:21:07.074Z,5.30
2023-04-09T00:23:36.494Z,3.10
2023-04-09T00:26:04.465Z,3.10
2023-04-09T00:28:32.343Z,4.70
2023-04-09T00:31:00.388Z,2.90
2023-04-09T00:33:28.279Z,4.00
2023-04-09T00:35:56.219Z,3.40
2023-04-09T00:38:24.245Z,4.20
2023-04-09T00:40:53.492Z,2.60
2023-04-09T00:43:21.550Z,2.60
2023-04-09T00:45:49.525Z,3.10
2023-04-09T00:48:18.198Z,4.30
2023-04-09T00:50:46.154Z,3.90
2023-04-09T00:53:15.438Z,4.30
2023-04-09T00:55:43.340Z,2.50
2023-04-09T00:58:12.878Z,2.40
2023-04-09T01:00:40.892Z,2.40
2023-04-09T01:03:09.467Z,3.30
2023-04-09T01:05:42.430Z,2.30
2023-04-09T01:08:15.989Z,3.20
2023-04-09T01:10:48.085Z,2.20
2023-04-09T01:13:24.963Z,2.20
2023-04-09T01:15:57.423Z,2.10
2023-04-09T01:18:32.064Z,2.00
2023-04-09T01:21:04.709Z,4.30
2023-04-09T01:23:44.809Z,3.20
2023-04-09T01:26:21.629Z,2.80
2023-04-09T01:28:54.764Z,1.90
2023-04-09T01:31:29.207Z,2.30
2023-04-09T01:33:57.994Z,1.60
2023-04-09T01:36:27.318Z,3.50
2023-04-09T01:38:57.128Z,1.70
2023-04-09T01:41:27.020Z,1.70
2023-04-09T01:43:57.257Z,1.60
2023-04-09T01:46:27.172Z,1.50
2023-04-09T01:48:55.750Z,3.60
2023-04-09T01:51:27.294Z,1.20
2023-04-09T01:53:55.479Z,1.30
2023-04-09T01:56:23.374Z,1.30
2023-04-09T01:58:52.557Z,1.30
2023-04-09T02:01:32.069Z,3.00
2023-04-09T02:04:05.268Z,1.20
2023-04-09T02:06:39.728Z,1.20
2023-04-09T02:09:09.904Z,1.20
2023-04-09T02:11:41.464Z,1.20
2023-04-09T02:14:11.227Z,1.10
2023-04-09T02:16:41.516Z,1.00
2023-04-09T02:19:09.456Z,1.20
2023-04-09T02:21:37.327Z,1.30
2023-04-09T02:24:05.817Z,3.30
2023-04-09T02:26:33.759Z,1.30
2023-04-09T02:29:01.600Z,1.20
2023-04-09T02:31:29.498Z,1.20
2023-04-09T02:33:58.843Z,1.20
2023-04-09T02:36:27.696Z,1.30
2023-04-09T02:38:55.799Z,1.20
2023-04-09T02:41:24.775Z,1.80
2023-04-09T02:43:52.679Z,3.00
2023-04-09T02:46:20.758Z,1.20
2023-04-09T02:48:48.731Z,1.20
2023-04-09T02:51:17.997Z,1.20
2023-04-09T02:53:45.870Z,1.10
2023-04-09T02:56:13.760Z,3.40
2023-04-09T02:58:41.648Z,1.20
2023-04-09T03:01:09.620Z,1.50
2023-04-09T03:03:39.132Z,1.70
2023-04-09T03:06:07.151Z,3.80
2023-04-09T03:08:36.610Z,2.20
2023-04-09T03:11:04.575Z,2.10
2023-04-09T03:13:32.541Z,4.30
2023-04-09T03:16:00.517Z,4.40
2023-04-09T03:18:28.478Z,2.20
2023-04-09T03:20:56.416Z,2.40
2023-04-09T03:23:24.346Z,2.30
2023-04-09T03:26:02.926Z,3.70
2023-04-09T03:28:31.163Z,3.70
2023-04-09T03:30:59.282Z,3.20
2023-04-09T03:33:27.239Z,2.90
2023-04-09T03:35:55.307Z,4.00
2023-04-09T03:38:23.321Z,2.70
2023-04-09T03:40:51.182Z,2.70
2023-04-09T03:43:20.403Z,2.70
2023-04-09T03:45:48.295Z,2.80
2023-04-09T03:48:16.170Z,4.50
2023-04-09T03:50:44.048Z,2.90
2023-04-09T03:53:11.975Z,4.40
2023-04-09T03:55:39.907Z,3.80
2023-04-09T03:58:07.830Z,3.00
2023-04-09T04:00:37.101Z,4.00
2023-04-09T04:03:05.719Z,4.00
2023-04-09T04:05:33.860Z,3.00
2023-04-09T04:08:01.824Z,3.00
2023-04-09T04:10:29.804Z,4.00
2023-04-09T04:13:00.478Z,3.70
2023-04-09T04:15:31.663Z,3.60
2023-04-09T04:18:10.210Z,4.20
2023-04-09T04:20:40.312Z,1.90
2023-04-09T04:23:08.409Z,4.40
2023-04-09T04:25:36.299Z,5.10
2023-04-09T04:28:04.179Z,3.10
2023-04-09T04:30:32.132Z,4.90
2023-04-09T04:33:01.516Z,3.20
2023-04-09T04:35:29.511Z,4.90
2023-04-09T04:37:57.413Z,3.30
2023-04-09T04:40:25.380Z,3.30
2023-04-09T04:42:53.288Z,3.30
2023-04-09T04:45:21.179Z,3.30
2023-04-09T04:47:49.190Z,3.20
2023-04-09T04:50:18.504Z,3.20
2023-04-09T04:52:46.417Z,5.00
2023-04-09T04:55:14.356Z,3.30
2023-04-09T04:57:42.277Z,3.30
2023-04-09T05:00:11.054Z,5.20
2023-04-09T05:02:39.068Z,3.20
2023-04-09T05:05:07.695Z,3.10
2023-04-09T05:07:36.936Z,3.10
2023-04-09T05:10:05.211Z,3.10
2023-04-09T05:12:33.093Z,3.10
2023-04-09T05:15:00.984Z,3.10
2023-04-09T05:17:29.020Z,4.50
2023-04-09T05:19:57.817Z,3.10
2023-04-09T05:22:25.731Z,3.10
2023-04-09T05:24:54.959Z,3.10
2023-04-09T05:27:24.298Z,3.20
2023-04-09T05:29:52.212Z,3.20
2023-04-09T05:32:20.170Z,3.20
2023-04-09T05:34:48.332Z,3.90
2023-04-09T05:37:16.280Z,3.20
2023-04-09T05:39:44.233Z,4.90
2023-04-09T05:42:13.472Z,3.20
2023-04-09T05:44:41.372Z,3.20
2023-04-09T05:47:09.302Z,4.80
2023-04-09T05:49:37.483Z,4.30
2023-04-09T05:52:05.448Z,3.30
2023-04-09T05:54:33.347Z,3.40
2023-04-09T05:57:01.277Z,3.30
2023-04-09T05:59:30.626Z,3.40
2023-04-09T06:01:58.547Z,3.50
2023-04-09T06:04:26.498Z,5.20
2023-04-09T06:06:55.646Z,5.30
2023-04-09T06:09:23.635Z,3.60
2023-04-09T06:11:51.530Z,3.60
2023-04-09T06:14:19.449Z,5.40
2023-04-09T06:16:48.640Z,5.20
2023-04-09T06:19:17.692Z,5.30
2023-04-09T06:21:45.591Z,4.60
2023-04-09T06:24:13.559Z,3.80
2023-04-09T06:26:41.488Z,5.10
2023-04-09T06:29:09.333Z,4.40
2023-04-09T06:31:37.247Z,5.70
2023-04-09T06:34:06.557Z,3.90
2023-04-09T06:36:34.638Z,4.00
2023-04-09T06:39:02.951Z,4.10
2023-04-09T06:41:30.845Z,4.70
2023-04-09T06:43:59.497Z,4.20
2023-04-09T06:46:27.549Z,6.00
2023-04-09T06:48:55.521Z,4.40
2023-04-09T06:51:24.812Z,4.40
2023-04-09T06:53:52.873Z,4.50
2023-04-09T06:56:20.900Z,4.50
2023-04-09T06:58:48.787Z,5.10
2023-04-09T07:01:17.344Z,4.50
2023-04-09T07:03:45.681Z,6.10
2023-04-09T07:06:13.679Z,4.50
2023-04-09T07:08:42.919Z,4.50
2023-04-09T07:11:10.802Z,6.10
2023-04-09T07:13:38.717Z,5.00
2023-04-09T07:16:07.014Z,4.50
2023-04-09T07:18:34.953Z,4.60
2023-04-09T07:21:03.417Z,4.70
2023-04-09T07:23:36.132Z,4.70
2023-04-09T07:26:05.658Z,6.20
2023-04-09T07:28:33.609Z,6.70
2023-04-09T07:31:02.843Z,5.00
2023-04-09T07:33:30.983Z,6.10
2023-04-09T07:35:58.886Z,5.40
2023-04-09T07:38:28.783Z,6.40
2023-04-09T07:40:56.681Z,6.60
2023-04-09T07:43:26.126Z,5.60
2023-04-09T07:45:54.082Z,5.10
2023-04-09T07:48:22.007Z,5.60
2023-04-09T07:50:49.891Z,5.20
2023-04-09T07:53:17.800Z,5.70
2023-04-09T07:55:45.666Z,5.10
2023-04-09T07:58:13.595Z,5.50
2023-04-09T08:00:42.881Z,5.30
2023-04-09T08:03:10.925Z,5.40
2023-04-09T08:05:39.823Z,5.50
2023-04-09T08:08:07.797Z,6.80
2023-04-09T08:10:35.722Z,5.60
2023-04-09T08:13:03.590Z,5.70
2023-04-09T08:15:31.630Z,5.90
2023-04-09T08:18:04.117Z,6.00
2023-04-09T08:20:33.034Z,6.20
2023-04-09T08:23:01.065Z,6.50
2023-04-09T08:25:28.971Z,6.50
2023-04-09T08:27:59.121Z,6.80
2023-04-09T08:30:27.299Z,6.60
2023-04-09T08:32:55.286Z,6.70
2023-04-09T08:35:24.711Z,6.90
2023-04-09T08:37:52.622Z,7.00
2023-04-09T08:40:20.655Z,7.30
2023-04-09T08:42:54.330Z,7.50
2023-04-09T08:45:22.389Z,7.60
2023-04-09T08:47:52.540Z,7.60
2023-04-09T08:50:23.998Z,7.80
2023-04-09T08:52:54.073Z,7.80
2023-04-09T08:55:22.040Z,7.60
2023-04-09T08:57:49.921Z,7.70
2023-04-09T09:00:17.801Z,7.80
2023-04-09T09:03:04.691Z,8.00
2023-04-09T09:05:40.329Z,8.30
2023-04-09T09:08:11.009Z,8.60
2023-04-09T09:10:40.582Z,8.90
2023-04-09T09:13:19.499Z,9.10
2023-04-09T09:15:49.855Z,9.40
2023-04-09T09:18:19.590Z,10.60
2023-04-09T09:20:47.521Z,10.00
2023-04-09T09:23:16.800Z,10.40
2023-04-09T09:25:44.762Z,10.70
2023-04-09T09:28:13.991Z,10.70
2023-04-09T09:30:41.971Z,10.80
2023-04-09T09:33:11.545Z,11.60
2023-04-09T09:35:50.325Z,11.10
2023-04-09T09:38:19.747Z,11.20
2023-04-09T09:40:48.412Z,11.40
2023-04-09T09:43:16.469Z,12.40
2023-04-09T09:45:45.565Z,11.80
2023-04-09T09:48:14.058Z,11.70
2023-04-09T09:50:42.869Z,12.10
2023-04-09T09:53:12.582Z,12.40
2023-04-09T09:55:46.982Z,12.50
2023-04-09T09:58:20.804Z,12.60
2023-04-09T10:00:51.327Z,12.10
2023-04-09T10:03:23.728Z,12.00
2023-04-09T10:05:53.384Z,14.00
2023-04-09T10:08:22.307Z,13.50
2023-04-09T10:10:53.059Z,12.70
2023-04-09T10:13:26.930Z,14.20
2023-04-09T10:15:55.560Z,14.80
2023-04-09T10:18:23.575Z,14.90
2023-04-09T10:20:57.804Z,14.00
2023-04-09T10:23:33.780Z,14.80
2023-04-09T10:26:03.046Z,13.60
2023-04-09T10:28:31.133Z,15.50
2023-04-09T10:30:59.633Z,13.80
2023-04-09T10:33:29.210Z,13.90
2023-04-09T10:36:01.413Z,14.90
2023-04-09T10:38:37.329Z,15.80
2023-04-09T10:41:14.863Z,14.60
2023-04-09T10:43:43.012Z,14.30
2023-04-09T10:46:26.904Z,15.70
2023-04-09T10:49:12.087Z,15.00
2023-04-09T10:51:40.798Z,15.20
2023-04-09T10:54:43.793Z,14.00
2023-04-09T10:57:20.774Z,14.10
2023-04-09T10:59:50.731Z,14.30
2023-04-09T11:03:00.035Z,14.70
2023-04-09T11:05:33.952Z,14.40
2023-04-09T11:08:07.385Z,15.60
2023-04-09T11:10:35.698Z,14.90
2023-04-09T11:13:05.476Z,14.90
2023-04-09T11:15:35.333Z,15.00
2023-04-09T11:18:03.688Z,15.00
2023-04-09T11:20:32.059Z,15.60
2023-04-09T11:23:00.570Z,15.30
2023-04-09T11:25:31.237Z,15.40
2023-04-09T11:27:59.691Z,15.30
2023-04-09T11:30:31.032Z,16.70
2023-04-09T11:32:58.981Z,14.90
2023-04-09T11:35:26.927Z,14.70
2023-04-09T11:37:54.859Z,14.80
2023-04-09T11:40:25.505Z,16.30
2023-04-09T11:42:55.707Z,15.00
2023-04-09T11:45:26.301Z,15.60
2023-04-09T11:47:56.608Z,15.20
2023-04-09T11:50:25.291Z,16.10
2023-04-09T11:52:53.387Z,15.90
2023-04-09T11:55:26.550Z,16.60
2023-04-09T11:57:58.605Z,16.00
2023-04-09T12:00:26.652Z,15.80
2023-04-09T12:03:03.536Z,16.20
2023-04-09T12:05:33.507Z,15.30
2023-04-09T12:08:02.610Z,15.10
2023-04-09T12:10:31.576Z,15.50
2023-04-09T12:13:03.424Z,14.70
2023-04-09T12:15:34.137Z,15.20
2023-04-09T12:18:04.171Z,15.70
2023-04-09T12:20:34.551Z,15.60
2023-04-09T12:23:03.836Z,15.90
2023-04-09T12:25:32.627Z,14.20
2023-04-09T12:28:00.680Z,14.00
2023-04-09T12:30:28.598Z,15.40
2023-04-09T12:32:57.074Z,14.40
2023-04-09T12:35:26.850Z,14.60
2023-04-09T12:37:54.859Z,14.40
2023-04-09T12:40:23.345Z,14.60
2023-04-09T12:42:51.635Z,15.50
2023-04-09T12:45:20.917Z,16.00
2023-04-09T12:47:49.252Z,16.20
2023-04-09T12:50:17.761Z,15.20
2023-04-09T12:52:47.246Z,15.90
2023-04-09T12:55:16.071Z,14.90
2023-04-09T12:57:45.739Z,16.00
2023-04-09T13:00:14.718Z,14.90
2023-04-09T13:02:42.973Z,14.80
2023-04-09T13:05:11.256Z,16.10
2023-04-09T13:07:40.870Z,16.00
2023-04-09T13:10:12.336Z,15.10
2023-04-09T13:12:40.479Z,14.80
2023-04-09T13:15:08.856Z,15.30
2023-04-09T13:17:36.842Z,14.30
2023-04-09T13:20:05.360Z,16.30
2023-04-09T13:22:33.350Z,14.60
2023-04-09T13:25:01.225Z,14.90
2023-04-09T13:27:30.525Z,14.40
2023-04-09T13:29:58.489Z,14.80
2023-04-09T13:32:26.704Z,14.20
2023-04-09T13:34:55.673Z,14.50
2023-04-09T13:37:23.557Z,15.40
2023-04-09T13:39:51.594Z,14.80
2023-04-09T13:42:19.601Z,14.00
2023-04-09T13:44:48.896Z,14.00
2023-04-09T13:47:17.822Z,15.20
2023-04-09T13:49:46.181Z,15.50
2023-04-09T13:52:14.462Z,14.90
2023-04-09T13:54:42.389Z,13.90
2023-04-09T13:57:10.776Z,14.20
2023-04-09T13:59:39.122Z,14.50
2023-04-09T14:02:08.669Z,13.80
2023-04-09T14:04:36.719Z,15.50
2023-04-09T14:07:04.665Z,13.80
2023-04-09T14:09:32.627Z,15.00
2023-04-09T14:12:01.848Z,13.60
2023-04-09T14:14:29.895Z,15.10
2023-04-09T14:16:57.823Z,14.70
2023-04-09T14:19:27.074Z,13.30
2023-04-09T14:21:55.612Z,13.50
2023-04-09T14:24:23.511Z,15.20
2023-04-09T14:26:53.340Z,15.30
2023-04-09T14:29:22.041Z,14.40
2023-04-09T14:31:50.040Z,13.60
2023-04-09T14:34:18.074Z,14.90
2023-04-09T14:36:47.302Z,13.80
2023-04-09T14:39:15.602Z,13.90
2023-04-09T14:41:43.540Z,15.70
2023-04-09T14:44:11.687Z,13.80
2023-04-09T14:46:39.655Z,14.70
2023-04-09T14:49:07.631Z,14.40
2023-04-09T14:51:35.759Z,15.10
2023-04-09T14:54:05.100Z,15.80
2023-04-09T14:56:33.017Z,13.90
2023-04-09T14:59:00.921Z,15.60
2023-04-09T15:01:29.424Z,14.90
2023-04-09T15:03:58.097Z,13.70
2023-04-09T15:06:26.267Z,13.60
2023-04-09T15:08:54.464Z,14.30
2023-04-09T15:11:23.934Z,15.40
2023-04-09T15:13:53.088Z,15.40
2023-04-09T15:16:25.879Z,13.70
2023-04-09T15:18:55.959Z,14.60
2023-04-09T15:21:24.567Z,14.90
2023-04-09T15:23:52.723Z,13.60
2023-04-09T15:26:20.758Z,14.00
2023-04-09T15:28:49.996Z,13.50
2023-04-09T15:31:18.203Z,14.00
2023-04-09T15:33:47.161Z,13.60
2023-04-09T15:36:15.477Z,13.60
2023-04-09T15:38:43.372Z,15.20
2023-04-09T15:41:13.380Z,14.50
2023-04-09T15:43:41.238Z,14.70
2023-04-09T15:46:11.468Z,13.30
2023-04-09T15:48:39.411Z,13.20
2023-04-09T15:51:07.955Z,14.60
2023-04-09T15:53:35.979Z,13.20
2023-04-09T15:56:04.205Z,14.40
2023-04-09T15:58:32.216Z,13.10
2023-04-09T16:01:01.402Z,14.60
2023-04-09T16:03:35.268Z,15.00
2023-04-09T16:06:07.338Z,13.50
2023-04-09T16:08:35.613Z,13.10
2023-04-09T16:11:04.859Z,13.20
2023-04-09T16:13:32.792Z,14.30
2023-04-09T16:16:01.101Z,13.30
2023-04-09T16:18:30.863Z,14.50
2023-04-09T16:20:58.878Z,13.80
2023-04-09T16:23:30.330Z,13.20
2023-04-09T16:25:58.591Z,14.30
2023-04-09T16:28:26.666Z,13.80
2023-04-09T16:30:54.551Z,14.50
2023-04-09T16:33:22.451Z,13.60
2023-04-09T16:35:51.833Z,14.50
2023-04-09T16:38:19.721Z,15.00
2023-04-09T16:40:47.704Z,14.80
2023-04-09T16:43:15.591Z,14.00
2023-04-09T16:45:43.770Z,13.60
2023-04-09T16:48:12.824Z,14.60
2023-04-09T16:50:41.420Z,14.10
2023-04-09T16:53:10.773Z,15.00
2023-04-09T16:55:38.785Z,13.20
2023-04-09T16:58:06.693Z,12.70
2023-04-09T17:00:35.262Z,14.60
2023-04-09T17:03:03.337Z,13.70
2023-04-09T17:05:31.801Z,12.40
2023-04-09T17:07:59.727Z,12.30
2023-04-09T17:10:28.993Z,13.30
2023-04-09T17:12:56.886Z,12.10
2023-04-09T17:15:25.870Z,12.00
2023-04-09T17:17:53.982Z,11.90
2023-04-09T17:20:22.675Z,12.50
2023-04-09T17:22:50.928Z,13.20
2023-04-09T17:25:20.388Z,11.70
2023-04-09T17:27:49.934Z,12.40
2023-04-09T17:30:17.986Z,13.50
2023-04-09T17:32:46.155Z,11.50
2023-04-09T17:35:14.163Z,10.00
2023-04-09T17:37:42.067Z,11.20
2023-04-09T17:40:12.362Z,11.10
2023-04-09T17:42:40.794Z,11.10
2023-04-09T17:45:11.199Z,11.00
2023-04-09T17:47:39.472Z,10.90
2023-04-09T17:50:08.722Z,10.80
2023-04-09T17:52:37.569Z,10.00
2023-04-09T17:55:07.531Z,10.60
2023-04-09T17:57:35.724Z,10.50
2023-04-09T18:00:04.113Z,10.40
2023-04-09T18:02:34.939Z,10.20
2023-04-09T18:05:04.407Z,10.10
2023-04-09T18:07:34.118Z,10.00
2023-04-09T18:10:02.577Z,9.90
2023-04-09T18:12:30.690Z,10.00
2023-04-09T18:14:58.653Z,9.60
2023-04-09T18:17:27.185Z,9.50
2023-04-09T18:19:58.176Z,9.40
2023-04-09T18:22:26.878Z,11.10
2023-04-09T18:24:54.907Z,10.60
2023-04-09T18:27:22.842Z,10.40
2023-04-09T18:29:50.923Z,9.80
2023-04-09T18:32:19.663Z,8.80
2023-04-09T18:34:47.990Z,10.30
2023-04-09T18:37:17.205Z,10.10
2023-04-09T18:39:45.943Z,8.50
2023-04-09T18:42:13.926Z,8.30
2023-04-09T18:44:42.397Z,8.20
2023-04-09T18:47:11.844Z,8.10
2023-04-09T18:49:39.707Z,8.00
2023-04-09T18:52:09.088Z,8.00
2023-04-09T18:54:38.793Z,7.90
2023-04-09T18:57:07.440Z,7.90
2023-04-09T18:59:35.616Z,7.80
2023-04-09T19:02:04.753Z,7.70
2023-04-09T19:04:36.143Z,7.70
2023-04-09T19:07:04.433Z,7.60
2023-04-09T19:09:32.976Z,7.50
2023-04-09T19:12:02.651Z,7.40
2023-04-09T19:14:30.639Z,7.40
2023-04-09T19:16:59.633Z,7.30
2023-04-09T19:19:28.904Z,7.20
2023-04-09T19:21:56.818Z,7.70
2023-04-09T19:24:24.955Z,7.10
2023-04-09T19:26:53.471Z,7.00
2023-04-09T19:29:22.745Z,6.90
2023-04-09T19:31:50.639Z,6.80
2023-04-09T19:34:18.544Z,7.20
2023-04-09T19:36:46.567Z,7.40
2023-04-09T19:39:15.330Z,6.50
2023-04-09T19:41:43.255Z,6.50
2023-04-09T19:44:11.346Z,6.40
2023-04-09T19:46:40.878Z,6.30
2023-04-09T19:49:08.776Z,6.30
2023-04-09T19:51:36.624Z,6.80
2023-04-09T19:54:04.721Z,6.70
2023-04-09T19:56:32.988Z,5.90
2023-04-09T19:59:00.913Z,5.90
2023-04-09T20:01:28.948Z,5.80
2023-04-09T20:03:58.539Z,6.30
2023-04-09T20:06:27.071Z,5.70
2023-04-09T20:08:55.842Z,7.40
2023-04-09T20:11:23.746Z,6.10
2023-04-09T20:13:51.908Z,6.10
2023-04-09T20:16:20.043Z,6.10
2023-04-09T20:18:48.010Z,5.80
2023-04-09T20:21:17.251Z,5.40
2023-04-09T20:23:45.628Z,5.60
2023-04-09T20:26:13.755Z,6.60
2023-04-09T20:28:41.778Z,5.50
2023-04-09T20:31:09.678Z,5.20
2023-04-09T20:33:37.575Z,5.90
2023-04-09T20:36:14.129Z,6.70
2023-04-09T20:38:43.451Z,5.10
2023-04-09T20:41:11.547Z,6.20
2023-04-09T20:43:39.395Z,5.00
2023-04-09T20:46:07.342Z,5.20
2023-04-09T20:48:35.354Z,4.90
2023-04-09T20:51:04.020Z,5.90
2023-04-09T20:53:32.213Z,6.20
2023-04-09T20:56:02.036Z,5.40
2023-04-09T20:58:30.045Z,6.00
2023-04-09T21:01:05.026Z,6.30
2023-04-09T21:03:33.151Z,4.70
2023-04-09T21:06:01.297Z,5.00
2023-04-09T21:08:29.421Z,4.60
2023-04-09T21:10:57.364Z,4.60
2023-04-09T21:13:27.661Z,4.60
2023-04-09T21:15:55.842Z,4.50
2023-04-09T21:18:23.935Z,4.40
2023-04-09T21:20:51.910Z,6.30
2023-04-09T21:23:19.923Z,5.20
2023-04-09T21:25:47.812Z,4.30
2023-04-09T21:28:15.692Z,4.90
2023-04-09T21:30:44.967Z,4.20
2023-04-09T21:33:12.885Z,6.00
2023-04-09T21:35:40.896Z,5.60
2023-04-09T21:38:08.926Z,4.00
2023-04-09T21:40:37.151Z,5.30
2023-04-09T21:43:05.045Z,5.80
2023-04-09T21:45:32.900Z,5.50
2023-04-09T21:48:02.914Z,3.80
2023-04-09T21:50:33.119Z,5.50
2023-04-09T21:53:00.984Z,3.80
2023-04-09T21:55:28.895Z,5.40
2023-04-09T21:57:57.033Z,3.70
2023-04-09T22:00:24.908Z,5.40
2023-04-09T22:02:53.103Z,4.30
2023-04-09T22:05:23.239Z,5.30
2023-04-09T22:07:51.162Z,3.50
2023-04-09T22:10:19.467Z,5.30
2023-04-09T22:12:47.360Z,3.50
2023-04-09T22:15:15.352Z,3.60
2023-04-09T22:17:43.362Z,4.70
2023-04-09T22:20:11.763Z,4.10
2023-04-09T22:22:42.347Z,3.40
2023-04-09T22:25:11.933Z,5.20
2023-04-09T22:27:39.924Z,3.40
2023-04-09T22:30:09.100Z,5.20
2023-04-09T22:32:37.025Z,3.40
2023-04-09T22:35:05.291Z,5.40
2023-04-09T22:37:33.229Z,3.30
2023-04-09T22:40:02.506Z,4.50
2023-04-09T22:42:30.428Z,3.20
2023-04-09T22:44:58.351Z,3.20
2023-04-09T22:47:26.538Z,3.10
2023-04-09T22:49:55.211Z,3.00
2023-04-09T22:52:23.149Z,3.10
2023-04-09T22:54:51.385Z,5.20
2023-04-09T22:57:20.706Z,4.60
2023-04-09T22:59:48.598Z,5.00
2023-04-09T23:02:16.547Z,4.70
2023-04-09T23:04:44.498Z,2.90
2023-04-09T23:07:12.553Z,3.00
2023-04-09T23:09:40.414Z,2.90
2023-04-09T23:12:08.315Z,4.50
2023-04-09T23:14:37.894Z,2.80
2023-04-09T23:17:06.076Z,2.80
2023-04-09T23:19:33.968Z,2.70
2023-04-09T23:22:01.884Z,4.30
2023-04-09T23:24:29.858Z,2.70
2023-04-09T23:26:57.767Z,2.80
2023-04-09T23:29:26.197Z,4.80
2023-04-09T23:31:55.556Z,2.60
2023-04-09T23:34:23.455Z,2.60
2023-04-09T23:36:51.562Z,3.30
2023-04-09T23:39:19.482Z,4.00
2023-04-09T23:41:47.596Z,4.30
2023-04-09T23:44:15.530Z,4.40
2023-04-09T23:46:43.451Z,4.90
2023-04-09T23:49:12.772Z,3.90
2023-04-09T23:51:40.635Z,3.90
2023-04-09T23:54:08.549Z,2.60
2023-04-09T23:56:37.411Z,2.60
2023-04-09T23:59:05.314Z,4.30
